Iota, Louisiana
Current Conditions -  °F | °C
As of 4:55 AM on Sunday 23 Nov 2014 (Local Time) from K3R7 Reporting Station
Light Rain Light Rain  
Wind Chill: 17°   Ceiling: 900
Heat Index: 17°   Visibility: 10mi
Dew Point: 16°   Wind: 18mph
Humidity: 97%   Direction: 170°S
Pressure: 29.59"   Gusts: 26mph
Location:  30.33°N, 92.5°W
Report Text: K3R7 231055Z AUTO 17016G23KT 10SM -RA OVC009 17/16 A2959 RMK AO2 P0016 T01660161
Loading
Personal Weather Stations






























Interactive Weather Map New forecast layout! Learn more

10-Day Weather Forecast

Advertisements
Track Severe Weather on mobile